createdAt,value
2023-10-23T00:02:37.214Z,10.54
2023-10-23T00:07:24.326Z,10.59
2023-10-23T00:12:16.828Z,10.72
2023-10-23T00:17:04.511Z,10.73
2023-10-23T00:21:51.726Z,10.57
2023-10-23T00:26:38.916Z,10.50
2023-10-23T00:31:28.855Z,10.60
2023-10-23T00:36:16.560Z,10.46
2023-10-23T00:41:04.891Z,10.41
2023-10-23T00:45:55.868Z,10.30
2023-10-23T00:50:45.862Z,10.22
2023-10-23T00:55:33.033Z,10.28
2023-10-23T01:00:20.540Z,10.29
2023-10-23T01:05:08.247Z,10.35
2023-10-23T01:09:57.995Z,10.38
2023-10-23T01:14:45.177Z,10.27
2023-10-23T01:19:33.339Z,10.22
2023-10-23T01:24:23.213Z,10.00
2023-10-23T01:29:13.068Z,10.21
2023-10-23T01:34:00.298Z,10.18
2023-10-23T01:38:47.384Z,10.10
2023-10-23T01:43:34.434Z,10.06
2023-10-23T01:48:24.279Z,10.01
2023-10-23T01:53:11.432Z,9.81
2023-10-23T01:57:58.800Z,9.74
2023-10-23T02:02:46.071Z,9.74
2023-10-23T02:07:35.858Z,9.70
2023-10-23T02:12:23.158Z,9.26
2023-10-23T02:17:10.305Z,9.58
2023-10-23T02:21:57.833Z,9.39
2023-10-23T02:26:47.695Z,9.31
2023-10-23T02:31:35.266Z,9.40
2023-10-23T02:36:22.408Z,9.28
2023-10-23T02:41:11.213Z,9.26
2023-10-23T02:46:04.621Z,8.92
2023-10-23T02:50:54.840Z,9.22
2023-10-23T02:55:42.036Z,9.42
2023-10-23T03:00:29.636Z,9.44
2023-10-23T03:05:19.509Z,9.60
2023-10-23T03:10:07.830Z,9.65
2023-10-23T03:14:55.087Z,9.65
2023-10-23T03:19:42.253Z,9.53
2023-10-23T03:24:32.966Z,9.56
2023-10-23T03:29:20.227Z,9.64
2023-10-23T03:34:07.328Z,9.73
2023-10-23T03:38:55.282Z,9.81
2023-10-23T03:43:44.946Z,9.83
2023-10-23T03:48:35.088Z,9.60
2023-10-23T03:53:22.203Z,9.80
2023-10-23T03:58:09.269Z,9.78
2023-10-23T04:02:59.036Z,9.36
2023-10-23T04:07:46.425Z,9.79
2023-10-23T04:12:33.786Z,9.63
2023-10-23T04:17:20.902Z,9.52
2023-10-23T04:22:10.707Z,9.76
2023-10-23T04:26:57.739Z,9.72
2023-10-23T04:31:45.040Z,9.71
2023-10-23T04:36:32.276Z,9.64
2023-10-23T04:41:23.022Z,9.72
2023-10-23T04:46:10.266Z,9.74
2023-10-23T04:51:01.149Z,9.77
2023-10-23T04:55:48.208Z,9.28
2023-10-23T05:00:39.499Z,9.78
2023-10-23T05:05:26.700Z,9.81
2023-10-23T05:10:13.973Z,9.81
2023-10-23T05:15:01.930Z,9.95
2023-10-23T05:19:51.708Z,9.88
2023-10-23T05:24:39.020Z,9.98
2023-10-23T05:29:26.173Z,9.94
2023-10-23T05:34:13.353Z,10.05
2023-10-23T05:39:03.085Z,10.07
2023-10-23T05:43:50.256Z,10.02
2023-10-23T05:48:37.429Z,10.04
2023-10-23T05:53:24.691Z,9.89
2023-10-23T05:58:14.373Z,10.11
2023-10-23T06:03:01.611Z,9.61
2023-10-23T06:07:49.017Z,10.09
2023-10-23T06:12:37.616Z,9.96
2023-10-23T06:17:27.572Z,9.85
2023-10-23T06:22:14.696Z,9.65
2023-10-23T06:27:01.775Z,9.95
2023-10-23T06:31:48.939Z,9.96
2023-10-23T06:36:41.350Z,10.03
2023-10-23T06:41:28.506Z,9.74
2023-10-23T06:46:15.692Z,9.97
2023-10-23T06:51:03.123Z,9.90
2023-10-23T06:55:54.339Z,9.92
2023-10-23T07:00:41.545Z,9.90
2023-10-23T07:05:28.700Z,9.68
2023-10-23T07:10:16.016Z,9.64
2023-10-23T07:15:06.862Z,9.92
2023-10-23T07:19:53.963Z,9.95
2023-10-23T07:24:41.260Z,9.84
2023-10-23T07:29:28.579Z,9.96
2023-10-23T07:34:18.470Z,9.82
2023-10-23T07:39:06.413Z,10.01
2023-10-23T07:43:53.504Z,9.99
2023-10-23T07:48:40.683Z,9.98
2023-10-23T07:53:30.733Z,9.85
2023-10-23T07:58:17.910Z,9.98
2023-10-23T08:03:05.143Z,9.97
2023-10-23T08:07:52.411Z,10.03
2023-10-23T08:12:42.324Z,9.92
2023-10-23T08:17:39.278Z,9.93
2023-10-23T08:22:29.493Z,10.09
2023-10-23T08:27:16.588Z,10.16
2023-10-23T08:32:06.653Z,10.13
2023-10-23T08:36:53.810Z,10.21
2023-10-23T08:41:42.735Z,10.07
2023-10-23T08:46:32.590Z,10.27
2023-10-23T08:51:22.739Z,10.26
2023-10-23T08:56:10.083Z,10.21
2023-10-23T09:00:57.657Z,10.25
2023-10-23T09:05:44.898Z,10.24
2023-10-23T09:11:03.716Z,10.37
2023-10-23T09:15:51.548Z,10.51
2023-10-23T09:20:38.919Z,10.60
2023-10-23T09:25:26.513Z,10.58
2023-10-23T09:30:17.577Z,10.78
2023-10-23T09:35:05.909Z,10.95
2023-10-23T09:39:52.948Z,10.90
2023-10-23T09:44:44.125Z,11.14
2023-10-23T09:49:34.039Z,11.20
2023-10-23T09:54:21.687Z,11.22
2023-10-23T09:59:10.069Z,11.70
2023-10-23T10:04:06.916Z,11.90
2023-10-23T10:08:57.601Z,11.73
2023-10-23T10:13:45.754Z,12.15
2023-10-23T10:18:37.126Z,12.07
2023-10-23T10:23:25.665Z,12.23
2023-10-23T10:28:15.499Z,12.33
2023-10-23T10:34:22.858Z,12.42
2023-10-23T10:38:12.168Z,12.55
2023-10-23T10:42:59.435Z,12.56
2023-10-23T10:47:53.068Z,12.42
2023-10-23T10:52:41.555Z,12.68
2023-10-23T10:57:28.709Z,12.93
2023-10-23T11:02:16.319Z,13.03
2023-10-23T11:07:07.718Z,13.03
2023-10-23T11:11:58.294Z,13.16
2023-10-23T11:16:45.406Z,13.24
2023-10-23T11:21:32.542Z,13.23
2023-10-23T11:26:22.442Z,13.32
2023-10-23T11:31:09.693Z,13.39
2023-10-23T11:35:56.890Z,13.44
2023-10-23T11:40:44.590Z,13.54
2023-10-23T11:45:34.364Z,13.60
2023-10-23T11:50:25.080Z,13.67
2023-10-23T11:55:14.404Z,13.61
2023-10-23T12:00:03.233Z,13.72
2023-10-23T12:05:01.683Z,13.08
2023-10-23T12:09:49.081Z,13.75
2023-10-23T12:14:36.391Z,13.63
2023-10-23T12:19:23.524Z,13.65
2023-10-23T12:24:13.400Z,13.64
2023-10-23T12:29:00.685Z,13.88
2023-10-23T12:33:48.045Z,13.70
2023-10-23T12:38:35.553Z,13.96
2023-10-23T12:43:25.435Z,13.94
2023-10-23T12:48:12.701Z,13.91
2023-10-23T12:53:00.299Z,14.16
2023-10-23T12:57:47.540Z,14.11
2023-10-23T13:02:38.423Z,14.07
2023-10-23T13:07:25.649Z,13.96
2023-10-23T13:12:13.268Z,14.14
2023-10-23T13:17:00.658Z,13.97
2023-10-23T13:21:50.589Z,13.94
2023-10-23T13:26:37.753Z,13.78
2023-10-23T13:31:25.140Z,13.66
2023-10-23T13:36:12.702Z,13.97
2023-10-23T13:41:03.257Z,13.79
2023-10-23T13:45:51.154Z,13.93
2023-10-23T13:50:38.450Z,13.92
2023-10-23T13:55:26.032Z,13.91
2023-10-23T14:00:17.378Z,13.82
2023-10-23T14:05:05.628Z,13.86
2023-10-23T14:09:53.230Z,13.81
2023-10-23T14:14:40.926Z,13.69
2023-10-23T14:19:45.628Z,13.52
2023-10-23T14:24:34.606Z,13.63
2023-10-23T14:29:21.769Z,13.51
2023-10-23T14:34:08.937Z,13.60
2023-10-23T14:38:58.661Z,13.39
2023-10-23T14:43:45.758Z,12.85
2023-10-23T14:48:32.856Z,13.59
2023-10-23T14:53:20.180Z,13.50
2023-10-23T14:58:09.940Z,13.29
2023-10-23T15:02:57.153Z,13.39
2023-10-23T15:07:44.339Z,13.32
2023-10-23T15:12:31.459Z,13.18
2023-10-23T15:17:21.365Z,13.01
2023-10-23T15:22:11.291Z,13.15
2023-10-23T15:26:58.592Z,12.97
2023-10-23T15:31:46.069Z,13.08
2023-10-23T15:36:36.158Z,13.04
2023-10-23T15:41:23.484Z,12.84
2023-10-23T15:46:13.587Z,12.60
2023-10-23T15:51:00.969Z,12.96
2023-10-23T15:55:51.195Z,12.93
2023-10-23T16:00:38.557Z,12.89
2023-10-23T16:05:26.255Z,12.88
2023-10-23T16:10:15.746Z,12.85
2023-10-23T16:15:07.077Z,12.83
2023-10-23T16:19:54.140Z,12.69
2023-10-23T16:24:41.529Z,12.73
2023-10-23T16:29:29.055Z,12.69
2023-10-23T16:34:18.904Z,12.75
2023-10-23T16:39:06.129Z,12.74
2023-10-23T16:43:53.179Z,12.63
2023-10-23T16:48:41.023Z,12.67
2023-10-23T16:53:30.885Z,12.72
2023-10-23T16:58:18.086Z,12.70
2023-10-23T17:03:05.566Z,12.64
2023-10-23T17:07:52.932Z,12.67
2023-10-23T17:12:42.595Z,12.52
2023-10-23T17:17:29.759Z,12.46
2023-10-23T17:22:17.045Z,12.54
2023-10-23T17:27:05.193Z,12.49
2023-10-23T17:31:55.164Z,12.42
2023-10-23T17:36:42.359Z,12.42
2023-10-23T17:41:29.506Z,12.45
2023-10-23T17:46:16.829Z,12.33
2023-10-23T17:51:06.666Z,12.30
2023-10-23T17:55:53.871Z,12.11
2023-10-23T18:00:41.138Z,12.33
2023-10-23T18:05:28.408Z,12.33
2023-10-23T18:10:19.150Z,12.21
2023-10-23T18:15:07.505Z,12.28
2023-10-23T18:19:54.668Z,12.21
2023-10-23T18:24:59.439Z,12.13
2023-10-23T18:29:49.417Z,12.20
2023-10-23T18:34:36.960Z,11.64
2023-10-23T18:39:24.077Z,12.09
2023-10-23T18:44:11.337Z,12.19
2023-10-23T18:49:01.146Z,12.08
2023-10-23T18:53:48.262Z,12.10
2023-10-23T18:58:35.655Z,11.98
2023-10-23T19:03:23.352Z,12.08
2023-10-23T19:08:13.261Z,12.03
2023-10-23T19:13:00.465Z,11.99
2023-10-23T19:17:47.679Z,12.10
2023-10-23T19:22:34.960Z,12.07
2023-10-23T19:27:24.816Z,11.85
2023-10-23T19:32:13.665Z,11.84
2023-10-23T19:37:01.482Z,11.85
2023-10-23T19:41:49.892Z,12.02
2023-10-23T19:46:40.389Z,12.02
2023-10-23T19:51:29.614Z,11.90
2023-10-23T19:56:17.530Z,11.88
2023-10-23T20:01:04.773Z,11.75
2023-10-23T20:05:54.638Z,11.83
2023-10-23T20:10:41.990Z,11.86
2023-10-23T20:15:29.192Z,11.73
2023-10-23T20:20:16.479Z,11.81
2023-10-23T20:25:06.717Z,11.80
2023-10-23T20:29:54.686Z,11.75
2023-10-23T20:34:41.822Z,11.70
2023-10-23T20:39:29.020Z,11.72
2023-10-23T20:44:18.814Z,11.77
2023-10-23T20:49:05.982Z,11.55
2023-10-23T20:53:53.150Z,11.74
2023-10-23T20:58:40.296Z,11.56
2023-10-23T21:03:30.066Z,11.66
2023-10-23T21:08:17.227Z,11.67
2023-10-23T21:13:04.557Z,11.64
2023-10-23T21:17:51.787Z,11.67
2023-10-23T21:22:41.842Z,11.67
2023-10-23T21:27:32.024Z,11.13
2023-10-23T21:32:19.242Z,11.66
2023-10-23T21:37:06.549Z,11.42
2023-10-23T21:41:56.325Z,11.53
2023-10-23T21:46:43.551Z,11.65
2023-10-23T21:51:31.795Z,11.53
2023-10-23T21:57:18.653Z,11.56
2023-10-23T22:01:32.396Z,11.49
2023-10-23T22:06:20.186Z,11.32
2023-10-23T22:11:08.437Z,11.55
2023-10-23T22:15:55.683Z,11.59
2023-10-23T22:20:45.486Z,11.58
2023-10-23T22:25:32.649Z,11.54
2023-10-23T22:30:19.846Z,11.52
2023-10-23T22:35:07.628Z,11.50
2023-10-23T22:39:57.501Z,11.52
2023-10-23T22:44:44.660Z,11.37
2023-10-23T22:49:32.504Z,11.40
2023-10-23T22:54:20.351Z,11.39
2023-10-23T22:59:11.055Z,11.50
2023-10-23T23:03:58.879Z,11.50
2023-10-23T23:08:51.200Z,11.43
2023-10-23T23:13:38.876Z,11.40
2023-10-23T23:18:30.621Z,11.28
2023-10-23T23:23:17.762Z,11.38
2023-10-23T23:28:05.520Z,11.42
2023-10-23T23:32:52.760Z,11.31
2023-10-23T23:37:42.624Z,11.44
2023-10-23T23:42:29.739Z,11.51
2023-10-23T23:47:16.868Z,11.31
2023-10-23T23:52:04.351Z,11.47
2023-10-23T23:56:54.203Z,11.49
